Time;durP1;ratioP1;P1;durP2;ratioP2;P2;SDS_P1;SDS_P2;PMS_P1;PMS_P2;Temp;Humidity;BMP_temperature;BMP_pressure;BME280_temperature;BME280_humidity;BME280_pressure;Samples;Min_cycle;Max_cycle;Signal;HPM_P1;HPM_P2
2022/05/04 00:01:44;;;;;;;1.37;1.07;;;17.30;63.10;;;;;;5270299;28;20200;-65
2022/05/04 00:04:36;;;;;;;2.17;1.20;;;17.30;63.20;;;;;;5265500;28;20238;-65
2022/05/04 00:07:30;;;;;;;1.37;1.00;;;17.30;63.20;;;;;;5265790;28;20204;-65
2022/05/04 00:10:23;;;;;;;1.33;1.10;;;17.20;63.10;;;;;;5265253;28;20443;-66
2022/05/04 00:13:15;;;;;;;1.77;1.23;;;17.30;63.10;;;;;;5265641;28;20203;-65
2022/05/04 00:16:07;;;;;;;2.00;1.17;;;17.30;63.10;;;;;;5265647;28;20849;-65
2022/05/04 00:18:59;;;;;;;1.27;1.03;;;17.30;63.10;;;;;;5264886;28;20219;-66
2022/05/04 00:21:51;;;;;;;1.90;1.20;;;17.30;63.10;;;;;;5273245;28;20199;-66
2022/05/04 00:24:44;;;;;;;2.03;1.13;;;17.30;63.10;;;;;;5266221;28;20234;-66
2022/05/04 00:27:37;;;;;;;2.00;1.20;;;17.30;63.00;;;;;;5283758;28;20191;-65
2022/05/04 00:30:29;;;;;;;1.50;1.20;;;17.30;63.10;;;;;;5286706;28;20658;-65
2022/05/04 00:33:21;;;;;;;1.53;1.10;;;17.20;63.10;;;;;;5286813;28;20600;-65
2022/05/04 00:36:13;;;;;;;2.93;1.50;;;17.20;63.10;;;;;;5286703;28;20195;-65
2022/05/04 00:39:05;;;;;;;1.63;1.20;;;17.30;63.10;;;;;;5286909;28;20219;-65
2022/05/04 00:42:08;;;;;;;1.43;1.20;;;17.20;63.00;;;;;;5286774;28;20195;-65
2022/05/04 00:45:00;;;;;;;1.63;1.23;;;17.30;63.10;;;;;;5286472;28;20207;-66
2022/05/04 00:47:52;;;;;;;2.77;1.27;;;17.20;63.00;;;;;;5286729;28;20194;-67
2022/05/04 00:50:45;;;;;;;2.47;1.20;;;17.20;63.10;;;;;;5280648;28;20200;-66
2022/05/04 00:53:39;;;;;;;2.50;1.30;;;17.20;63.00;;;;;;5265822;28;20188;-65
2022/05/04 00:56:32;;;;;;;1.93;1.30;;;17.20;63.00;;;;;;5276299;28;20721;-65
2022/05/04 00:59:25;;;;;;;1.13;1.00;;;17.20;63.00;;;;;;5286349;28;20628;-65
2022/05/04 01:02:18;;;;;;;1.90;1.27;;;17.20;63.00;;;;;;5283625;28;20199;-66
2022/05/04 01:05:11;;;;;;;1.83;1.33;;;17.20;63.00;;;;;;5285806;28;20211;-65
2022/05/04 01:08:04;;;;;;;1.93;1.10;;;17.20;63.00;;;;;;5286078;28;20927;-65
2022/05/04 01:10:57;;;;;;;2.07;1.10;;;17.20;63.00;;;;;;5285123;28;20195;-65
2022/05/04 01:13:59;;;;;;;1.70;1.10;;;17.20;63.00;;;;;;5285601;28;20201;-66
2022/05/04 01:16:53;;;;;;;1.67;1.07;;;17.20;63.00;;;;;;5286294;28;20198;-65
2022/05/04 01:19:45;;;;;;;1.83;1.10;;;17.20;62.90;;;;;;5285946;28;20746;-65
2022/05/04 01:22:39;;;;;;;1.53;1.10;;;17.20;63.00;;;;;;5272127;28;20271;-65
2022/05/04 01:25:31;;;;;;;1.10;1.00;;;17.20;62.90;;;;;;5265389;28;20220;-66
2022/05/04 01:28:23;;;;;;;2.00;1.27;;;17.20;63.00;;;;;;5264877;28;20843;-65
2022/05/04 01:31:15;;;;;;;1.87;1.20;;;17.20;63.00;;;;;;5264345;28;20693;-65
2022/05/04 01:34:07;;;;;;;1.90;0.90;;;17.20;62.90;;;;;;5265319;28;20216;-65
2022/05/04 01:37:00;;;;;;;1.70;1.10;;;17.20;62.90;;;;;;5265702;28;20192;-65
2022/05/04 01:39:53;;;;;;;2.03;1.03;;;17.20;62.90;;;;;;5264749;28;20594;-65
2022/05/04 01:42:45;;;;;;;1.47;1.17;;;17.20;62.90;;;;;;5263556;28;20196;-65
2022/05/04 01:45:37;;;;;;;1.30;0.87;;;17.20;62.90;;;;;;5263955;28;20218;-66
2022/05/04 01:48:29;;;;;;;3.23;1.20;;;17.20;62.90;;;;;;5271640;28;20786;-65
2022/05/04 01:51:21;;;;;;;2.03;1.10;;;17.20;62.80;;;;;;5275648;28;20202;-66
2022/05/04 01:54:13;;;;;;;2.27;1.27;;;17.20;62.90;;;;;;5265282;28;20195;-66
2022/05/04 01:57:07;;;;;;;2.13;1.17;;;17.20;62.90;;;;;;5264290;28;20690;-65
2022/05/04 02:00:00;;;;;;;1.57;0.90;;;17.20;62.90;;;;;;5273677;28;20348;-66
2022/05/04 02:02:52;;;;;;;1.93;1.20;;;17.20;62.80;;;;;;5283879;28;20195;-65
2022/05/04 02:05:44;;;;;;;1.40;1.00;;;17.20;62.80;;;;;;5285357;28;20226;-66
2022/05/04 02:08:37;;;;;;;1.90;1.00;;;17.20;62.80;;;;;;5285473;28;20219;-66
2022/05/04 02:11:32;;;;;;;2.47;0.97;;;17.20;62.80;;;;;;5271419;28;20238;-65
2022/05/04 02:14:25;;;;;;;1.93;1.10;;;17.20;62.80;;;;;;5263855;28;20199;-65
2022/05/04 02:17:17;;;;;;;0.97;0.90;;;17.20;62.80;;;;;;5264610;28;20583;-66
2022/05/04 02:20:11;;;;;;;2.07;1.00;;;17.20;62.70;;;;;;5288160;28;20649;-65
2022/05/04 02:23:03;;;;;;;1.57;1.10;;;17.20;62.90;;;;;;5282260;28;20192;-67
2022/05/04 02:25:55;;;;;;;2.40;0.90;;;17.20;62.70;;;;;;5268711;28;20212;-65
2022/05/04 02:28:48;;;;;;;1.43;1.00;;;17.20;62.80;;;;;;5268979;28;20215;-65
2022/05/04 02:31:41;;;;;;;1.73;1.10;;;17.20;62.80;;;;;;5268796;28;20206;-65
2022/05/04 02:34:33;;;;;;;2.40;1.20;;;17.20;62.70;;;;;;5267902;28;20221;-65
2022/05/04 02:40:35;;;;;;;1.53;1.10;;;17.20;62.70;;;;;;5288113;28;20206;-65
2022/05/04 02:43:28;;;;;;;1.67;1.10;;;17.20;62.80;;;;;;5289339;28;20666;-65
2022/05/04 02:46:23;;;;;;;1.97;1.00;;;17.20;62.80;;;;;;5288662;28;20195;-65
2022/05/04 02:49:16;;;;;;;1.33;1.10;;;17.20;62.80;;;;;;5275177;28;20294;-65
2022/05/04 02:52:08;;;;;;;1.77;1.27;;;17.10;62.70;;;;;;5284133;28;20668;-66
2022/05/04 02:55:00;;;;;;;1.63;1.00;;;17.20;62.70;;;;;;5288911;28;20187;-65
2022/05/04 02:57:53;;;;;;;1.70;0.90;;;17.20;62.70;;;;;;5286960;28;20228;-65
2022/05/04 03:00:45;;;;;;;2.43;0.97;;;17.20;62.70;;;;;;5269099;28;20566;-65
2022/05/04 03:03:36;;;;;;;1.33;1.00;;;17.20;62.60;;;;;;5267793;28;20191;-65
2022/05/04 03:06:29;;;;;;;1.53;1.13;;;17.20;62.70;;;;;;5267561;28;20203;-66
2022/05/04 03:09:21;;;;;;;1.00;0.80;;;17.10;62.70;;;;;;5267342;28;20226;-65
2022/05/04 03:12:13;;;;;;;1.53;1.03;;;17.20;62.60;;;;;;5269088;28;20187;-65
2022/05/04 03:15:06;;;;;;;1.10;0.87;;;17.20;62.70;;;;;;5267997;28;20674;-65
2022/05/04 03:17:58;;;;;;;1.30;0.90;;;17.20;62.70;;;;;;5268205;28;20188;-66
2022/05/04 03:20:50;;;;;;;1.43;1.00;;;17.20;62.70;;;;;;5267854;28;20196;-65
2022/05/04 03:23:44;;;;;;;1.50;1.00;;;17.20;62.70;;;;;;5267075;28;20196;-65
2022/05/04 03:26:36;;;;;;;1.20;1.07;;;17.10;62.50;;;;;;5267615;28;20202;-65
2022/05/04 03:29:29;;;;;;;1.47;0.93;;;17.10;62.60;;;;;;5288566;28;20218;-65
2022/05/04 03:32:21;;;;;;;0.93;0.80;;;17.20;62.50;;;;;;5287646;28;20195;-65
2022/05/04 03:35:13;;;;;;;1.73;1.10;;;17.20;62.70;;;;;;5288119;28;20191;-66
2022/05/04 03:38:05;;;;;;;1.10;0.80;;;17.10;62.50;;;;;;5276462;28;20216;-66
2022/05/04 03:40:59;;;;;;;1.60;0.80;;;17.20;62.60;;;;;;5285443;28;20191;-65
2022/05/04 03:43:51;;;;;;;1.97;0.80;;;17.20;62.50;;;;;;5286618;28;20328;-66
2022/05/04 03:46:44;;;;;;;1.20;0.77;;;17.20;62.50;;;;;;5279562;28;20188;-65
2022/05/04 03:49:36;;;;;;;1.33;0.97;;;17.20;62.30;;;;;;5266869;28;20277;-66
2022/05/04 03:52:29;;;;;;;1.93;1.23;;;17.20;62.30;;;;;;5285189;28;20195;-65
2022/05/04 03:55:21;;;;;;;2.00;1.03;;;17.20;62.30;;;;;;5286992;28;20202;-65
2022/05/04 03:58:14;;;;;;;1.33;1.03;;;17.20;62.30;;;;;;5288254;28;20340;-65
2022/05/04 04:01:07;;;;;;;1.70;0.80;;;17.20;62.30;;;;;;5286598;28;20187;-67
2022/05/04 04:04:00;;;;;;;1.70;1.20;;;17.20;62.20;;;;;;5282850;28;20210;-65
2022/05/04 04:06:52;;;;;;;1.20;0.90;;;17.20;62.20;;;;;;5279016;28;20191;-65
2022/05/04 04:09:44;;;;;;;1.47;1.13;;;17.20;62.20;;;;;;5287081;28;20310;-66
2022/05/04 04:12:37;;;;;;;2.63;1.20;;;17.20;62.20;;;;;;5286133;28;20203;-65
2022/05/04 04:15:30;;;;;;;1.47;0.90;;;17.20;62.30;;;;;;5267357;28;20275;-65
2022/05/04 04:18:24;;;;;;;1.30;0.90;;;17.20;62.20;;;;;;5266471;28;20212;-66
2022/05/04 04:24:26;;;;;;;1.53;0.93;;;17.20;62.30;;;;;;5268218;28;20196;-66
2022/05/04 04:27:18;;;;;;;1.67;1.03;;;17.20;62.20;;;;;;5267079;28;20199;-66
2022/05/04 04:30:11;;;;;;;1.43;1.00;;;17.30;62.30;;;;;;5266572;28;20191;-66
2022/05/04 04:33:05;;;;;;;1.57;1.00;;;17.20;62.20;;;;;;5265739;28;20244;-65
2022/05/04 04:35:58;;;;;;;1.43;0.90;;;17.20;62.10;;;;;;5266043;28;20203;-66
2022/05/04 04:38:50;;;;;;;1.13;0.83;;;17.20;62.70;;;;;;5266190;28;20605;-65
2022/05/04 04:41:42;;;;;;;1.60;0.93;;;17.20;62.20;;;;;;5280596;28;20187;-65
2022/05/04 04:44:34;;;;;;;1.57;1.00;;;17.20;62.10;;;;;;5282187;28;20294;-65
2022/05/04 04:47:26;;;;;;;1.33;0.90;;;17.20;62.20;;;;;;5286495;28;20200;-66
2022/05/04 04:50:19;;;;;;;1.20;0.73;;;17.20;62.20;;;;;;5286153;28;20195;-65
2022/05/04 04:53:12;;;;;;;1.07;0.90;;;17.30;62.20;;;;;;5267241;28;20191;-65
2022/05/04 04:56:04;;;;;;;2.27;1.27;;;17.20;62.20;;;;;;5285890;28;20559;-65
2022/05/04 04:58:57;;;;;;;1.40;1.10;;;17.30;62.20;;;;;;5266115;28;20648;-65
2022/05/04 05:01:49;;;;;;;1.27;0.87;;;17.20;62.10;;;;;;5265827;28;20200;-65
2022/05/04 05:04:41;;;;;;;1.30;1.00;;;17.20;62.20;;;;;;5265498;28;20674;-65
2022/05/04 05:07:35;;;;;;;1.57;1.00;;;17.20;62.10;;;;;;5266234;28;20579;-66
2022/05/04 05:10:27;;;;;;;1.50;0.80;;;17.20;62.10;;;;;;5265285;28;20580;-65
2022/05/04 05:13:19;;;;;;;2.13;1.00;;;17.30;62.10;;;;;;5276029;28;20336;-65
2022/05/04 05:16:11;;;;;;;1.67;1.10;;;17.30;62.00;;;;;;5284228;28;20198;-65
2022/05/04 05:19:03;;;;;;;2.53;1.07;;;17.30;62.00;;;;;;5278510;28;20219;-67
2022/05/04 05:21:55;;;;;;;1.20;1.10;;;17.20;62.10;;;;;;5265638;28;20663;-66
2022/05/04 05:24:48;;;;;;;1.43;0.90;;;17.20;62.00;;;;;;5265382;28;20698;-66
2022/05/04 05:27:41;;;;;;;2.37;1.00;;;17.30;62.00;;;;;;5265498;28;20670;-64
2022/05/04 05:30:33;;;;;;;1.40;1.03;;;17.20;62.10;;;;;;5265203;28;20200;-64
2022/05/04 05:33:25;;;;;;;2.40;0.97;;;17.30;62.10;;;;;;5265180;28;20187;-63
2022/05/04 05:36:17;;;;;;;2.50;1.10;;;17.30;62.10;;;;;;5265183;28;20191;-64
2022/05/04 05:39:09;;;;;;;1.53;1.17;;;17.30;62.10;;;;;;5264927;28;20334;-63
2022/05/04 05:42:03;;;;;;;2.57;1.20;;;17.30;62.00;;;;;;5273100;28;20198;-66
2022/05/04 05:44:55;;;;;;;1.77;1.03;;;17.30;61.80;;;;;;5280905;28;20206;-64
2022/05/04 05:47:47;;;;;;;1.83;1.10;;;17.30;61.70;;;;;;5275912;28;20197;-64
2022/05/04 05:50:39;;;;;;;3.13;1.20;;;17.30;61.60;;;;;;5275034;28;20193;-64
2022/05/04 05:53:32;;;;;;;2.13;1.20;;;17.30;61.60;;;;;;5282211;28;20190;-64
2022/05/04 05:56:24;;;;;;;2.87;1.33;;;17.30;61.50;;;;;;5285372;28;20700;-64
2022/05/04 05:59:17;;;;;;;2.77;1.10;;;17.30;61.50;;;;;;5288542;28;20258;-63
2022/05/04 06:02:09;;;;;;;4.20;1.37;;;17.30;61.60;;;;;;5280539;28;20485;-64
2022/05/04 06:05:02;;;;;;;3.03;1.20;;;17.30;61.60;;;;;;5276166;28;20211;-64
2022/05/04 06:07:54;;;;;;;2.37;1.10;;;17.30;61.50;;;;;;5281723;28;20256;-63
2022/05/04 06:10:46;;;;;;;4.13;1.50;;;17.30;61.30;;;;;;5293132;28;20190;-63
2022/05/04 06:13:38;;;;;;;3.33;1.20;;;17.30;61.00;;;;;;5287139;28;20191;-63
2022/05/04 06:16:32;;;;;;;3.63;1.20;;;17.30;60.70;;;;;;5271579;28;20646;-62
2022/05/04 06:19:24;;;;;;;3.00;1.70;;;17.30;59.90;;;;;;5282220;28;20696;-63
2022/05/04 06:22:16;;;;;;;4.87;1.60;;;17.20;60.30;;;;;;5282303;28;20544;-63
2022/05/04 06:25:09;;;;;;;4.23;1.37;;;17.20;59.70;;;;;;5271847;28;20204;-62
2022/05/04 06:28:01;;;;;;;5.50;1.57;;;17.20;59.60;;;;;;5271530;28;20212;-64
2022/05/04 06:34:07;;;;;;;6.30;1.70;;;17.20;58.90;;;;;;5272114;28;20199;-65
2022/05/04 06:37:00;;;;;;;3.70;1.70;;;17.20;58.80;;;;;;5271306;28;20275;-63
2022/05/04 06:39:52;;;;;;;3.70;1.53;;;17.30;58.90;;;;;;5272718;28;20262;-65
2022/05/04 06:42:44;;;;;;;4.13;1.37;;;17.30;59.00;;;;;;5283333;28;20654;-65
2022/05/04 06:45:36;;;;;;;4.55;1.60;;;17.30;58.60;;;;;;5292142;28;21114;-65
2022/05/04 06:48:28;;;;;;;4.10;1.73;;;17.30;58.50;;;;;;5292224;28;20294;-64
2022/05/04 06:51:21;;;;;;;2.17;1.30;;;17.30;58.70;;;;;;5283211;28;20192;-65
2022/05/04 06:54:14;;;;;;;4.57;1.67;;;17.30;58.60;;;;;;5288157;28;20198;-63
2022/05/04 06:57:06;;;;;;;4.00;1.40;;;17.30;58.80;;;;;;5271348;28;20196;-64
2022/05/04 06:59:59;;;;;;;5.00;1.60;;;17.30;58.70;;;;;;5270273;28;20799;-64
2022/05/04 07:02:51;;;;;;;3.20;1.20;;;17.30;58.30;;;;;;5270607;28;20219;-65
2022/05/04 07:05:43;;;;;;;3.40;1.43;;;17.30;59.10;;;;;;5267819;28;20296;-64
2022/05/04 07:08:37;;;;;;;4.97;1.30;;;17.40;59.50;;;;;;5268150;28;20875;-65
2022/05/04 07:11:30;;;;;;;4.17;1.20;;;17.40;59.60;;;;;;5267548;28;20227;-64
2022/05/04 07:14:22;;;;;;;4.33;1.23;;;17.40;59.70;;;;;;5267711;28;20195;-64
2022/05/04 07:17:14;;;;;;;1.93;0.90;;;17.40;59.70;;;;;;5269260;28;20203;-64
2022/05/04 07:20:08;;;;;;;1.83;1.00;;;17.40;59.80;;;;;;5270612;28;20245;-65
2022/05/04 07:23:00;;;;;;;3.17;1.00;;;17.40;59.90;;;;;;5288977;28;20191;-64
2022/05/04 07:25:54;;;;;;;3.47;1.00;;;17.40;60.00;;;;;;5287484;28;20699;-65
2022/05/04 07:28:46;;;;;;;3.90;1.10;;;17.40;60.00;;;;;;5288119;28;20214;-65
2022/05/04 07:31:38;;;;;;;1.87;0.80;;;17.40;60.10;;;;;;5281827;28;20671;-65
2022/05/04 07:34:31;;;;;;;6.53;2.00;;;17.40;60.70;;;;;;5287003;28;20646;-64
2022/05/04 07:37:23;;;;;;;3.37;1.00;;;17.40;60.00;;;;;;5268662;28;20195;-63
2022/05/04 07:43:26;;;;;;;3.47;1.37;;;17.40;59.80;;;;;;5266903;28;20647;-63
2022/05/04 07:46:18;;;;;;;3.37;1.20;;;17.40;59.50;;;;;;5267293;28;20211;-63
2022/05/04 07:49:11;;;;;;;2.27;0.83;;;17.40;59.30;;;;;;5267912;28;20234;-66
2022/05/04 07:52:03;;;;;;;3.60;1.07;;;17.30;58.70;;;;;;5280430;28;20191;-65
2022/05/04 07:54:55;;;;;;;3.60;1.30;;;17.30;58.50;;;;;;5269958;28;20432;-66
2022/05/04 07:57:48;;;;;;;5.47;1.10;;;17.40;58.20;;;;;;5287839;28;20191;-66
2022/05/04 08:07:01;;;;;;;4.83;1.00;;;17.40;56.40;;;;;;5279562;28;20257;-67
2022/05/04 08:09:53;;;;;;;3.00;1.27;;;17.40;56.60;;;;;;5265507;28;20230;-67
2022/05/04 08:12:45;;;;;;;6.07;1.50;;;17.40;56.60;;;;;;5266348;28;20428;-67
2022/05/04 08:15:38;;;;;;;7.70;1.77;;;17.40;56.70;;;;;;5265592;28;20183;-66
2022/05/04 08:18:31;;;;;;;8.20;1.70;;;17.40;55.90;;;;;;5283692;28;20416;-67
2022/05/04 08:21:24;;;;;;;7.60;1.27;;;17.40;54.60;;;;;;5286645;28;20244;-67
2022/05/04 08:24:16;;;;;;;5.13;1.63;;;17.40;55.30;;;;;;5271897;28;20192;-64
2022/05/04 08:27:08;;;;;;;5.13;0.90;;;17.30;56.00;;;;;;5267108;28;20694;-62
2022/05/04 08:30:01;;;;;;;5.00;1.77;;;17.30;56.40;;;;;;5269740;28;20223;-62
2022/05/04 08:32:53;;;;;;;2.37;1.30;;;17.30;56.40;;;;;;5277957;28;20574;-63
2022/05/04 08:35:46;;;;;;;3.37;1.50;;;17.30;56.40;;;;;;5282128;28;20675;-62
2022/05/04 08:38:38;;;;;;;3.67;1.20;;;17.30;56.30;;;;;;5285737;28;20222;-63
2022/05/04 08:41:31;;;;;;;5.70;1.40;;;17.30;55.90;;;;;;5286914;28;20191;-62
2022/05/04 08:44:24;;;;;;;5.80;1.50;;;17.30;56.60;;;;;;5272423;28;20200;-63
2022/05/04 08:47:18;;;;;;;5.10;1.73;;;17.30;56.50;;;;;;5265778;28;20214;-63
2022/05/04 08:50:11;;;;;;;3.30;1.30;;;17.30;56.80;;;;;;5278729;28;20340;-63
2022/05/04 08:53:07;;;;;;;4.20;1.40;;;17.30;57.20;;;;;;5265913;28;20274;-62
2022/05/04 08:55:59;;;;;;;4.40;1.10;;;17.20;56.30;;;;;;5267145;28;20195;-63
2022/05/04 08:58:51;;;;;;;3.03;1.50;;;17.20;56.70;;;;;;5270424;28;20222;-62
2022/05/04 09:01:45;;;;;;;4.07;1.37;;;17.20;57.00;;;;;;5275338;28;20789;-63
2022/05/04 09:04:40;;;;;;;3.37;1.33;;;17.20;57.10;;;;;;5286177;28;20218;-62
2022/05/04 09:07:32;;;;;;;3.83;1.00;;;17.20;57.10;;;;;;5286068;28;20581;-62
2022/05/04 09:10:27;;;;;;;2.40;1.00;;;17.20;57.10;;;;;;5286133;28;20574;-62
2022/05/04 09:13:20;;;;;;;4.27;1.20;;;17.20;57.10;;;;;;5286260;28;20191;-62
2022/05/04 09:16:25;;;;;;;2.97;1.30;;;17.20;57.00;;;;;;5272126;28;20188;-62
2022/05/04 09:19:19;;;;;;;2.93;1.13;;;17.20;57.00;;;;;;5266275;28;20695;-62
2022/05/04 09:22:18;;;;;;;3.43;1.30;;;17.20;57.10;;;;;;5265353;28;20671;-63
2022/05/04 09:25:17;;;;;;;3.87;1.30;;;17.20;57.10;;;;;;5265199;28;20239;-62
2022/05/04 09:28:13;;;;;;;4.50;1.37;;;17.20;57.20;;;;;;5266207;28;20277;-62
2022/05/04 09:31:07;;;;;;;2.07;1.30;;;17.20;57.10;;;;;;5277365;28;20191;-62
2022/05/04 09:34:01;;;;;;;2.93;1.57;;;17.20;56.90;;;;;;5266131;28;20199;-63
2022/05/04 09:46:34;;;;;;;2.70;1.37;;;17.20;57.10;;;;;;5285971;28;20219;-62
2022/05/04 09:49:30;;;;;;;2.60;1.40;;;17.20;57.10;;;;;;5284065;28;20211;-62
2022/05/04 09:52:24;;;;;;;2.87;1.30;;;17.20;57.10;;;;;;5267147;28;20662;-62
2022/05/04 09:55:19;;;;;;;3.37;1.30;;;17.20;57.00;;;;;;5266253;28;20318;-62
2022/05/04 09:58:11;;;;;;;1.80;1.10;;;17.20;57.00;;;;;;5265012;28;20215;-62
2022/05/04 10:01:06;;;;;;;3.80;1.40;;;17.20;57.10;;;;;;5264351;28;20195;-61
2022/05/04 10:03:59;;;;;;;3.27;1.23;;;17.20;57.40;;;;;;5264863;28;20567;-62
2022/05/04 10:06:52;;;;;;;3.20;1.40;;;17.20;57.40;;;;;;5265475;28;20364;-62
2022/05/04 10:09:44;;;;;;;3.10;1.20;;;17.20;57.50;;;;;;5266212;28;20220;-62
2022/05/04 10:12:39;;;;;;;5.57;1.27;;;17.20;57.40;;;;;;5263540;28;20254;-62
2022/05/04 10:15:34;;;;;;;2.00;1.10;;;17.20;57.40;;;;;;5264616;28;20206;-60
2022/05/04 10:18:31;;;;;;;4.33;1.63;;;17.20;57.40;;;;;;5266125;28;20207;-62
2022/05/04 10:21:24;;;;;;;3.10;1.23;;;17.20;57.30;;;;;;5264295;28;20208;-62
2022/05/04 10:24:18;;;;;;;4.07;1.37;;;17.20;57.30;;;;;;5282142;28;20191;-60
2022/05/04 10:27:18;;;;;;;3.20;1.20;;;17.20;57.30;;;;;;5284663;28;20212;-63
2022/05/04 10:33:25;;;;;;;3.03;1.20;;;17.20;57.00;;;;;;5264922;28;20274;-62
2022/05/04 10:36:20;;;;;;;3.80;1.60;;;17.20;57.30;;;;;;5278959;28;20207;-62
2022/05/04 10:39:20;;;;;;;2.00;1.27;;;17.20;57.30;;;;;;5285992;28;20217;-63
2022/05/04 10:42:54;;;;;;;3.43;1.30;;;17.20;57.30;;;;;;5279669;28;20195;-64
2022/05/04 10:45:48;;;;;;;4.40;1.80;;;17.20;56.90;;;;;;5268615;28;20484;-64
2022/05/04 10:48:45;;;;;;;2.97;1.50;;;17.20;56.70;;;;;;5269183;28;20602;-64
2022/05/04 10:51:39;;;;;;;2.67;1.30;;;17.20;56.70;;;;;;5279665;28;20570;-64
2022/05/04 10:54:33;;;;;;;2.27;1.47;;;17.20;57.20;;;;;;5287183;28;20200;-64
2022/05/04 10:57:41;;;;;;;2.47;1.40;;;17.20;57.40;;;;;;5267852;28;20188;-63
2022/05/04 11:00:33;;;;;;;4.60;1.47;;;17.20;57.80;;;;;;5268859;28;20206;-64
2022/05/04 11:03:25;;;;;;;2.53;1.33;;;17.20;57.90;;;;;;5268290;28;20196;-64
2022/05/04 11:06:25;;;;;;;3.23;1.77;;;17.20;58.00;;;;;;5266998;28;20491;-64
2022/05/04 11:09:20;;;;;;;3.77;1.10;;;17.40;57.60;;;;;;5281014;28;20219;-63
2022/05/04 11:12:13;;;;;;;1.80;0.90;;;17.40;58.20;;;;;;5288403;28;20192;-63
2022/05/04 11:15:06;;;;;;;4.50;1.37;;;17.40;58.00;;;;;;5287771;28;20191;-64
2022/05/04 11:17:58;;;;;;;6.10;1.30;;;17.30;58.10;;;;;;5289253;28;20188;-63
2022/05/04 11:20:51;;;;;;;2.83;1.23;;;17.30;58.20;;;;;;5288486;28;20203;-63
2022/05/04 11:23:47;;;;;;;3.17;1.20;;;17.30;58.30;;;;;;5287841;28;20916;-63
2022/05/04 11:26:42;;;;;;;2.57;1.20;;;17.30;58.40;;;;;;5287550;28;20218;-63
2022/05/04 11:29:34;;;;;;;3.30;1.27;;;17.30;58.50;;;;;;5272891;28;20226;-64
2022/05/04 11:32:29;;;;;;;1.77;1.20;;;17.40;58.60;;;;;;5286943;28;20195;-64
2022/05/04 11:35:21;;;;;;;2.30;1.30;;;17.30;58.60;;;;;;5288181;28;20275;-63
2022/05/04 11:38:18;;;;;;;3.43;1.23;;;17.30;58.60;;;;;;5287305;28;20207;-63
2022/05/04 11:41:11;;;;;;;2.33;1.40;;;17.40;58.80;;;;;;5281182;28;20199;-63
2022/05/04 11:44:04;;;;;;;2.13;1.10;;;17.30;58.70;;;;;;5268295;28;20234;-63
2022/05/04 11:46:58;;;;;;;1.53;1.10;;;17.30;58.90;;;;;;5266949;28;20218;-64
2022/05/04 11:49:50;;;;;;;2.60;0.90;;;17.30;58.90;;;;;;5267468;28;20212;-63
2022/05/04 11:52:44;;;;;;;2.90;1.27;;;17.30;59.00;;;;;;5286950;28;20332;-63
2022/05/04 11:55:36;;;;;;;4.23;0.80;;;17.40;59.00;;;;;;5287739;28;20199;-63
2022/05/04 11:58:28;;;;;;;2.57;1.07;;;17.40;59.10;;;;;;5288873;28;20207;-63
2022/05/04 12:01:22;;;;;;;1.13;0.73;;;17.40;59.20;;;;;;5285094;28;20248;-62
2022/05/04 12:04:15;;;;;;;3.03;1.10;;;17.30;59.20;;;;;;5284007;28;20188;-63
2022/05/04 12:07:07;;;;;;;2.17;1.20;;;17.30;59.30;;;;;;5266561;28;20211;-63
2022/05/04 12:10:00;;;;;;;3.80;1.50;;;17.30;59.30;;;;;;5268512;28;20215;-63
2022/05/04 12:12:52;;;;;;;3.33;0.97;;;17.30;59.40;;;;;;5272275;28;20255;-64
2022/05/04 12:15:45;;;;;;;3.00;1.23;;;17.40;59.50;;;;;;5287145;28;20199;-63
2022/05/04 12:18:39;;;;;;;1.43;1.10;;;17.30;59.60;;;;;;5287725;28;20690;-64
2022/05/04 12:21:31;;;;;;;2.97;1.20;;;17.30;60.20;;;;;;5275054;28;20192;-64
2022/05/04 12:24:24;;;;;;;1.53;0.80;;;17.40;59.80;;;;;;5275110;28;20546;-63
2022/05/04 12:27:16;;;;;;;1.97;1.10;;;17.30;59.80;;;;;;5287810;28;20671;-63
2022/05/04 12:33:19;;;;;;;4.10;1.40;;;17.30;59.80;;;;;;5266064;28;20240;-63
2022/05/04 12:36:13;;;;;;;3.20;1.10;;;17.30;60.00;;;;;;5266092;28;20202;-63
2022/05/04 12:39:05;;;;;;;5.03;1.33;;;17.30;60.10;;;;;;5267002;28;20709;-62
2022/05/04 12:41:58;;;;;;;2.30;1.13;;;17.30;60.10;;;;;;5286012;28;20237;-64
2022/05/04 12:44:51;;;;;;;2.67;0.90;;;17.30;60.30;;;;;;5286435;28;20187;-62
2022/05/04 12:47:43;;;;;;;10.93;1.80;;;17.30;60.40;;;;;;5266228;28;20215;-62
2022/05/04 12:50:36;;;;;;;9.40;1.67;;;17.30;60.00;;;;;;5265540;28;20230;-62
2022/05/04 12:53:30;;;;;;;8.13;1.77;;;17.30;59.50;;;;;;5265998;28;20192;-62
2022/05/04 12:59:31;;;;;;;4.97;1.60;;;17.30;59.80;;;;;;5265965;28;20200;-62
2022/05/04 13:02:24;;;;;;;4.77;1.63;;;17.30;60.00;;;;;;5267934;28;20192;-61
2022/05/04 13:05:19;;;;;;;7.23;1.40;;;17.30;60.10;;;;;;5265049;28;20202;-63
2022/05/04 13:08:11;;;;;;;3.83;1.43;;;17.30;60.20;;;;;;5264541;28;20326;-62
2022/05/04 13:11:05;;;;;;;4.93;1.70;;;17.30;60.30;;;;;;5272509;28;20194;-64
2022/05/04 13:13:58;;;;;;;2.00;1.30;;;17.20;60.30;;;;;;5265593;28;20196;-64
2022/05/04 13:16:50;;;;;;;3.00;1.13;;;17.20;60.40;;;;;;5264823;28;20229;-64
2022/05/04 13:19:42;;;;;;;5.30;1.40;;;17.30;60.50;;;;;;5265572;28;20289;-65
2022/05/04 13:22:34;;;;;;;4.13;1.13;;;17.30;60.50;;;;;;5265461;28;20203;-64
2022/05/04 13:25:27;;;;;;;4.47;1.10;;;17.30;60.50;;;;;;5265425;28;20202;-64
2022/05/04 13:28:20;;;;;;;4.03;1.53;;;17.30;60.60;;;;;;5265301;28;20222;-62
2022/05/04 13:31:13;;;;;;;4.10;1.30;;;17.30;60.50;;;;;;5264996;28;20203;-63
2022/05/04 13:34:05;;;;;;;4.43;1.20;;;17.30;60.60;;;;;;5276433;28;20203;-64
2022/05/04 13:36:57;;;;;;;1.80;0.90;;;17.40;60.60;;;;;;5285552;28;20195;-63
2022/05/04 13:39:49;;;;;;;5.40;1.40;;;17.30;60.60;;;;;;5272242;28;20418;-64
2022/05/04 13:42:42;;;;;;;5.47;1.77;;;17.40;60.30;;;;;;5284056;28;20203;-64
2022/05/04 13:45:36;;;;;;;5.03;2.53;;;17.50;59.20;;;;;;5277477;28;20198;-64
2022/05/04 13:48:28;;;;;;;9.80;3.47;;;17.40;58.40;;;;;;5272497;28;20207;-64
2022/05/04 13:54:30;;;;;;;7.57;3.23;;;17.40;57.50;;;;;;5285165;28;20187;-64
2022/05/04 13:57:22;;;;;;;13.30;3.75;;;17.30;56.70;;;;;;5281090;28;20939;-64
2022/05/04 14:00:15;;;;;;;5.83;2.40;;;17.30;56.00;;;;;;5267022;28;20196;-64
2022/05/04 14:03:09;;;;;;;4.57;2.30;;;17.30;56.70;;;;;;5264625;28;20574;-65
2022/05/04 14:06:01;;;;;;;3.13;1.77;;;17.30;57.20;;;;;;5263931;28;20195;-65
2022/05/04 14:08:53;;;;;;;3.93;1.80;;;17.30;57.70;;;;;;5285266;28;20219;-65
2022/05/04 14:11:46;;;;;;;3.73;1.53;;;17.30;58.10;;;;;;5285116;28;20202;-65
2022/05/04 14:17:47;;;;;;;3.30;1.80;;;17.30;58.70;;;;;;5269128;28;20183;-64
2022/05/04 14:20:43;;;;;;;3.20;1.43;;;17.30;58.90;;;;;;5270081;28;20195;-64
2022/05/04 14:23:35;;;;;;;5.00;1.50;;;17.30;59.00;;;;;;5288899;28;20573;-64
2022/05/04 14:26:27;;;;;;;2.70;1.53;;;17.30;59.20;;;;;;5289006;28;20195;-64
2022/05/04 14:29:20;;;;;;;2.87;1.60;;;17.30;59.40;;;;;;5288754;28;20214;-64
2022/05/04 14:32:12;;;;;;;2.77;1.57;;;17.30;59.50;;;;;;5289179;28;20565;-64
2022/05/04 14:35:05;;;;;;;3.97;1.80;;;17.40;59.60;;;;;;5286968;28;20193;-65
2022/05/04 14:37:59;;;;;;;2.83;1.30;;;17.30;59.70;;;;;;5278155;28;20196;-66
2022/05/04 14:40:51;;;;;;;3.97;1.80;;;17.40;59.80;;;;;;5267173;28;20322;-67
2022/05/04 14:43:43;;;;;;;4.53;1.70;;;17.40;59.90;;;;;;5276244;28;20195;-66
2022/05/04 14:46:35;;;;;;;2.23;1.20;;;17.40;59.90;;;;;;5289202;28;20674;-69
2022/05/04 14:49:28;;;;;;;2.87;1.33;;;17.40;60.00;;;;;;5288941;28;20567;-68
2022/05/04 14:52:20;;;;;;;1.40;1.00;;;17.40;60.00;;;;;;5271380;28;20208;-64
2022/05/04 14:55:14;;;;;;;2.33;1.40;;;17.40;60.10;;;;;;5287749;28;20570;-66
2022/05/04 14:58:06;;;;;;;4.10;1.50;;;17.40;60.10;;;;;;5268464;28;20215;-67
2022/05/04 15:00:58;;;;;;;3.17;1.47;;;17.40;60.00;;;;;;5268504;28;20191;-67
2022/05/04 15:07:00;;;;;;;2.37;1.60;;;17.30;60.00;;;;;;5269337;28;20701;-67
2022/05/04 15:09:52;;;;;;;2.83;1.90;;;17.40;60.20;;;;;;5268692;28;20253;-67
2022/05/04 15:12:45;;;;;;;1.73;1.30;;;17.40;60.30;;;;;;5267818;28;20496;-67
2022/05/04 15:15:37;;;;;;;1.90;1.30;;;17.40;60.30;;;;;;5284571;28;20736;-67
2022/05/04 15:18:30;;;;;;;2.90;1.40;;;17.40;60.30;;;;;;5285145;28;20211;-66
2022/05/04 15:21:22;;;;;;;4.00;1.63;;;17.40;60.30;;;;;;5272771;28;20204;-67
2022/05/04 15:24:14;;;;;;;2.70;1.40;;;17.40;60.30;;;;;;5267047;28;20786;-67
2022/05/04 15:27:06;;;;;;;2.70;1.43;;;17.40;60.30;;;;;;5271777;28;20199;-67
2022/05/04 15:30:00;;;;;;;3.03;1.70;;;17.40;60.30;;;;;;5266033;28;20211;-68
2022/05/04 15:32:52;;;;;;;3.13;1.87;;;17.40;60.40;;;;;;5265860;28;20199;-68
2022/05/04 15:35:44;;;;;;;2.93;1.97;;;17.40;60.50;;;;;;5266918;28;20270;-67
2022/05/04 15:38:36;;;;;;;3.43;1.70;;;17.40;60.40;;;;;;5286928;28;20228;-67
2022/05/04 15:41:28;;;;;;;3.07;1.40;;;17.40;60.40;;;;;;5288729;28;20320;-68
2022/05/04 15:44:20;;;;;;;2.33;1.67;;;17.40;60.40;;;;;;5275758;28;20658;-67
2022/05/04 15:47:14;;;;;;;1.77;1.50;;;17.40;60.50;;;;;;5268447;28;20690;-68
2022/05/04 15:50:08;;;;;;;2.57;1.60;;;17.40;60.50;;;;;;5279620;28;20215;-68